CheckWX is a tool to help pilots better visualize weather data.  It is not intended as a substitute for an official pre-flight weather briefing.

09:37:13 UTC

74V METAR
Roosevelt Municipal Airport
Roosevelt, Utah, USA
Current

22 mins ago

K74V 220915Z AUTO 00000KT 5SM -DZ OVC026 06/03 A2963 RMK AO2
Observed
May-22 @ 09:15 UTC
Visibility
5 SM
Flight Rules
MVFR
Conditions
Light Drizzle
Cloud Levels
  • Overcast at 2,600' AGL
Temperature
C / 43°F
Dewpoint
C / 37°F
Humidity
81%
Altimeter
29.63" Hg
Pressure
1003.42 hPa
Previous

42 mins ago

K74V 220855Z AUTO 00000KT 10SM -SN BKN022 OVC028 06/03 A2963 RMK AO2 P0001
Observed
May-22 @ 08:55 UTC
Visibility
10 SM
Flight Rules
MVFR
Conditions
Light Snow
Cloud Levels
  • Broken at 2,200' AGL
  • Overcast at 2,800' AGL
Temperature
C / 43°F
Dewpoint
C / 37°F
Humidity
81%
Altimeter
29.63" Hg
Pressure
1003.42 hPa
Current Rain
0.01"
Previous

1 hour ago

K74V 220835Z AUTO 00000KT 4SM -SN SCT009 SCT013 OVC028 06/04 A2963 RMK AO2 P0001
Observed
May-22 @ 08:35 UTC
Visibility
4 SM
Flight Rules
MVFR
Conditions
Light Snow
Cloud Levels
  • Scattered at 900' AGL
  • Scattered at 1,300' AGL
  • Overcast at 2,800' AGL
Temperature
C / 43°F
Dewpoint
C / 39°F
Humidity
87%
Altimeter
29.63" Hg
Pressure
1003.42 hPa
Current Rain
0.01"